Time;durP1;ratioP1;P1;durP2;ratioP2;P2;SDS_P1;SDS_P2;PMS_P1;PMS_P2;Temp;Humidity;BMP_temperature;BMP_pressure;BME280_temperature;BME280_humidity;BME280_pressure;Samples;Min_cycle;Max_cycle;Signal;HPM_P1;HPM_P2
2020/12/22 00:01:13;;;;;;;19.38;9.27;;;;;;;;;;5071648;28;20551;-51
2020/12/22 00:03:39;;;;;;;19.95;9.88;;;;;;;;;;5080169;28;21630;-52
2020/12/22 00:06:05;;;;;;;19.55;9.60;;;;;;;;;;5072230;28;20039;-53
2020/12/22 00:08:31;;;;;;;18.08;9.07;;;;;;;;;;5069501;28;20017;-53
2020/12/22 00:10:57;;;;;;;16.90;9.43;;;;;;;;;;5067596;28;20043;-51
2020/12/22 00:13:23;;;;;;;20.15;9.98;;;;;;;;;;5077258;28;20029;-48
2020/12/22 00:15:48;;;;;;;20.10;10.32;;;;;;;;;;5067779;28;20029;-50
2020/12/22 00:18:15;;;;;;;19.58;10.57;;;;;;;;;;5069293;28;20020;-52
2020/12/22 00:20:41;;;;;;;17.10;8.93;;;;;;;;;;5071227;28;20056;-50
2020/12/22 00:23:07;;;;;;;20.60;10.43;;;;;;;;;;5066902;28;20414;-51
2020/12/22 00:25:33;;;;;;;16.92;9.40;;;;;;;;;;5074592;28;20029;-54
2020/12/22 00:27:58;;;;;;;16.98;9.15;;;;;;;;;;5067637;28;20032;-50
2020/12/22 00:30:24;;;;;;;19.05;9.85;;;;;;;;;;5069955;28;20373;-51
2020/12/22 00:32:50;;;;;;;14.95;9.80;;;;;;;;;;5076507;28;20059;-51
2020/12/22 00:35:16;;;;;;;24.73;13.65;;;;;;;;;;5075659;28;20047;-51
2020/12/22 00:37:42;;;;;;;19.70;10.32;;;;;;;;;;5062842;28;20547;-52
2020/12/22 00:40:08;;;;;;;19.10;10.63;;;;;;;;;;5055222;28;20636;-50
2020/12/22 00:42:34;;;;;;;19.25;10.13;;;;;;;;;;5071717;28;20086;-53
2020/12/22 00:45:00;;;;;;;17.58;10.20;;;;;;;;;;5063470;28;20021;-50
2020/12/22 00:47:26;;;;;;;26.10;13.30;;;;;;;;;;5076974;28;20085;-53
2020/12/22 00:49:52;;;;;;;20.73;10.43;;;;;;;;;;5075262;28;20021;-52
2020/12/22 00:52:18;;;;;;;21.85;10.70;;;;;;;;;;5077902;28;20046;-50
2020/12/22 00:54:44;;;;;;;21.20;11.55;;;;;;;;;;5075296;28;20028;-51
2020/12/22 00:57:10;;;;;;;19.08;10.70;;;;;;;;;;5073250;28;20028;-54
2020/12/22 00:59:36;;;;;;;22.33;11.63;;;;;;;;;;5068338;28;20475;-52
2020/12/22 01:02:05;;;;;;;22.17;10.95;;;;;;;;;;5050764;28;20022;-48
2020/12/22 01:04:31;;;;;;;21.52;11.80;;;;;;;;;;5068258;28;20139;-52
2020/12/22 01:06:57;;;;;;;25.77;12.55;;;;;;;;;;5061849;28;20033;-50
2020/12/22 01:09:23;;;;;;;21.33;11.63;;;;;;;;;;5076709;28;20545;-50
2020/12/22 01:11:49;;;;;;;19.80;11.70;;;;;;;;;;5074960;28;20379;-49
2020/12/22 01:14:15;;;;;;;19.38;10.95;;;;;;;;;;5076273;28;20055;-53
2020/12/22 01:16:41;;;;;;;20.55;11.63;;;;;;;;;;5075577;28;20032;-54
2020/12/22 01:19:07;;;;;;;22.63;11.32;;;;;;;;;;5072688;28;20025;-50
2020/12/22 01:21:34;;;;;;;21.02;10.93;;;;;;;;;;5078266;28;20024;-50
2020/12/22 01:24:00;;;;;;;17.98;10.65;;;;;;;;;;5075217;28;20111;-51
2020/12/22 01:26:26;;;;;;;20.60;11.60;;;;;;;;;;5068919;28;20035;-48
2020/12/22 01:28:53;;;;;;;25.90;13.63;;;;;;;;;;5073674;28;20035;-55
2020/12/22 01:31:23;;;;;;;21.27;11.60;;;;;;;;;;5077374;28;20032;-50
2020/12/22 01:33:49;;;;;;;19.00;10.25;;;;;;;;;;5074331;28;20048;-52
2020/12/22 01:36:15;;;;;;;19.35;11.73;;;;;;;;;;5068746;28;20048;-50
2020/12/22 01:38:41;;;;;;;19.40;10.85;;;;;;;;;;5075525;28;20447;-53
2020/12/22 01:41:07;;;;;;;20.30;10.82;;;;;;;;;;5073783;28;20043;-51
2020/12/22 01:43:33;;;;;;;20.08;10.00;;;;;;;;;;5075521;28;20482;-49
2020/12/22 01:45:59;;;;;;;18.55;10.48;;;;;;;;;;5068575;28;20380;-51
2020/12/22 01:48:26;;;;;;;19.52;10.57;;;;;;;;;;5061565;28;20025;-52
2020/12/22 01:50:52;;;;;;;19.40;10.65;;;;;;;;;;5070133;28;20057;-49
2020/12/22 01:53:18;;;;;;;17.00;9.60;;;;;;;;;;5073510;28;20021;-53
2020/12/22 01:55:44;;;;;;;18.25;9.75;;;;;;;;;;5078612;28;20031;-48
2020/12/22 01:58:10;;;;;;;21.13;10.52;;;;;;;;;;5072077;28;20392;-51
2020/12/22 02:00:37;;;;;;;19.25;10.73;;;;;;;;;;5074959;28;20016;-48
2020/12/22 02:03:07;;;;;;;20.10;10.48;;;;;;;;;;5073282;28;20051;-54
2020/12/22 02:05:33;;;;;;;21.10;11.40;;;;;;;;;;5077870;28;20031;-49
2020/12/22 02:08:00;;;;;;;21.67;10.85;;;;;;;;;;5074225;28;20027;-50
2020/12/22 02:10:26;;;;;;;21.17;10.77;;;;;;;;;;5071298;28;20032;-55
2020/12/22 02:12:52;;;;;;;20.17;11.90;;;;;;;;;;5075548;28;20020;-53
2020/12/22 02:15:18;;;;;;;27.95;13.30;;;;;;;;;;5074652;28;20769;-52
2020/12/22 02:17:45;;;;;;;23.33;12.75;;;;;;;;;;5071344;28;20419;-50
2020/12/22 02:20:11;;;;;;;27.48;12.45;;;;;;;;;;5072279;28;20020;-52
2020/12/22 02:22:37;;;;;;;23.90;12.10;;;;;;;;;;5073876;28;20059;-49
2020/12/22 02:25:04;;;;;;;23.70;12.90;;;;;;;;;;5077910;28;20569;-50
2020/12/22 02:27:35;;;;;;;26.25;12.88;;;;;;;;;;5071714;28;20028;-49
2020/12/22 02:30:01;;;;;;;26.08;12.95;;;;;;;;;;5068960;28;20017;-51
2020/12/22 02:32:27;;;;;;;26.70;12.95;;;;;;;;;;5071981;28;20481;-54
2020/12/22 02:34:53;;;;;;;25.00;12.68;;;;;;;;;;5076792;28;20024;-50
2020/12/22 02:37:22;;;;;;;28.38;13.82;;;;;;;;;;5072820;28;20033;-51
2020/12/22 02:39:48;;;;;;;29.67;13.68;;;;;;;;;;5063863;28;20112;-51
2020/12/22 02:42:14;;;;;;;26.35;13.88;;;;;;;;;;5076466;28;20047;-50
2020/12/22 02:44:40;;;;;;;32.08;13.82;;;;;;;;;;5068531;28;20071;-48
2020/12/22 02:47:11;;;;;;;32.65;16.08;;;;;;;;;;5076365;28;20366;-53
2020/12/22 02:49:37;;;;;;;30.60;15.50;;;;;;;;;;5074513;28;20028;-53
2020/12/22 02:52:03;;;;;;;34.50;16.15;;;;;;;;;;5070383;28;20580;-49
2020/12/22 02:54:29;;;;;;;31.80;15.20;;;;;;;;;;5076014;28;20035;-51
2020/12/22 02:56:55;;;;;;;32.40;15.60;;;;;;;;;;5070149;28;20025;-50
2020/12/22 02:59:21;;;;;;;35.80;16.20;;;;;;;;;;5068344;28;20028;-50
2020/12/22 03:01:47;;;;;;;33.70;17.98;;;;;;;;;;5068578;28;20033;-51
2020/12/22 03:04:13;;;;;;;46.10;19.63;;;;;;;;;;5075289;28;20044;-51
2020/12/22 03:06:39;;;;;;;44.30;19.65;;;;;;;;;;5073147;28;20035;-50
2020/12/22 03:09:06;;;;;;;40.20;19.52;;;;;;;;;;5071777;28;20020;-53
2020/12/22 03:11:32;;;;;;;46.92;19.90;;;;;;;;;;5074947;28;20029;-52
2020/12/22 03:13:58;;;;;;;53.45;21.52;;;;;;;;;;5071909;28;20444;-48
2020/12/22 03:16:24;;;;;;;48.42;21.50;;;;;;;;;;5075281;28;20036;-48
2020/12/22 03:18:50;;;;;;;46.00;20.13;;;;;;;;;;5073971;28;20027;-52
2020/12/22 03:21:16;;;;;;;58.47;22.10;;;;;;;;;;5069860;28;20032;-52
2020/12/22 03:23:42;;;;;;;56.67;22.67;;;;;;;;;;5076203;28;20060;-50
2020/12/22 03:26:08;;;;;;;58.50;22.85;;;;;;;;;;5069799;28;20028;-53
2020/12/22 03:28:34;;;;;;;57.20;21.77;;;;;;;;;;5071763;28;20480;-52
2020/12/22 03:31:00;;;;;;;59.67;24.00;;;;;;;;;;5070761;28;20526;-50
2020/12/22 03:33:26;;;;;;;62.13;23.55;;;;;;;;;;5073000;28;20029;-49
2020/12/22 03:35:52;;;;;;;65.00;23.60;;;;;;;;;;5072950;28;20078;-51
2020/12/22 03:38:18;;;;;;;64.30;24.08;;;;;;;;;;5073755;28;20028;-51
2020/12/22 03:40:44;;;;;;;60.85;23.77;;;;;;;;;;5073126;28;20025;-48
2020/12/22 03:43:10;;;;;;;72.75;23.92;;;;;;;;;;5070841;28;20039;-49
2020/12/22 03:45:39;;;;;;;65.75;24.45;;;;;;;;;;5069625;28;20032;-52
2020/12/22 03:48:05;;;;;;;68.88;24.35;;;;;;;;;;5073314;28;20115;-50
2020/12/22 03:50:31;;;;;;;75.63;25.38;;;;;;;;;;5062670;28;20028;-52
2020/12/22 03:53:01;;;;;;;71.55;25.38;;;;;;;;;;5067199;28;20017;-50
2020/12/22 03:55:27;;;;;;;75.03;24.27;;;;;;;;;;5071814;28;20040;-51
2020/12/22 03:57:53;;;;;;;77.20;25.42;;;;;;;;;;5069763;28;20032;-52
2020/12/22 04:00:19;;;;;;;65.72;24.10;;;;;;;;;;5072078;28;20081;-51
2020/12/22 04:02:45;;;;;;;77.15;26.13;;;;;;;;;;5069395;28;20040;-49
2020/12/22 04:05:11;;;;;;;62.85;22.83;;;;;;;;;;5073262;28;20059;-51
2020/12/22 04:07:37;;;;;;;77.32;26.38;;;;;;;;;;5079061;28;20607;-48
2020/12/22 04:10:07;;;;;;;87.00;26.95;;;;;;;;;;5071985;28;20028;-49
2020/12/22 04:12:33;;;;;;;85.63;26.52;;;;;;;;;;5077853;28;20021;-52
2020/12/22 04:14:59;;;;;;;78.25;25.73;;;;;;;;;;5077712;28;20024;-50
2020/12/22 04:17:25;;;;;;;83.10;26.40;;;;;;;;;;5075845;28;20036;-48
2020/12/22 04:19:51;;;;;;;96.90;27.02;;;;;;;;;;5073812;28;20437;-51
2020/12/22 04:22:17;;;;;;;71.97;24.42;;;;;;;;;;5078496;28;20165;-49
2020/12/22 04:24:43;;;;;;;89.07;27.30;;;;;;;;;;5073632;28;20111;-48
2020/12/22 04:27:09;;;;;;;88.13;26.38;;;;;;;;;;5071955;28;20453;-52
2020/12/22 04:29:35;;;;;;;95.18;28.08;;;;;;;;;;5070145;28;20022;-51
2020/12/22 04:32:01;;;;;;;68.40;24.83;;;;;;;;;;5081559;28;20035;-49
2020/12/22 04:34:27;;;;;;;89.93;25.98;;;;;;;;;;5062747;28;20033;-51
2020/12/22 04:36:54;;;;;;;94.07;26.77;;;;;;;;;;5056245;28;20439;-50
2020/12/22 04:39:20;;;;;;;81.57;25.73;;;;;;;;;;5067198;28;20034;-51
2020/12/22 04:41:47;;;;;;;99.82;27.90;;;;;;;;;;5071326;28;20024;-52
2020/12/22 04:44:13;;;;;;;91.80;28.50;;;;;;;;;;5075846;28;20032;-53
2020/12/22 04:46:39;;;;;;;95.70;27.75;;;;;;;;;;5068523;28;20028;-51
2020/12/22 04:49:06;;;;;;;97.53;27.98;;;;;;;;;;5074234;28;20080;-53
2020/12/22 04:51:32;;;;;;;97.57;27.70;;;;;;;;;;5079828;28;20020;-50
2020/12/22 04:53:58;;;;;;;76.47;25.55;;;;;;;;;;5075696;28;20564;-50
2020/12/22 04:56:24;;;;;;;91.45;27.02;;;;;;;;;;5071332;28;20032;-51
2020/12/22 04:58:50;;;;;;;100.13;28.40;;;;;;;;;;5066730;28;20037;-52
2020/12/22 05:01:16;;;;;;;78.18;27.08;;;;;;;;;;5070014;28;20028;-49
2020/12/22 05:03:43;;;;;;;81.05;26.63;;;;;;;;;;5077727;28;20138;-49
2020/12/22 05:06:09;;;;;;;90.78;28.70;;;;;;;;;;5073474;28;20124;-53
2020/12/22 05:08:35;;;;;;;91.80;29.08;;;;;;;;;;5080768;28;20031;-51
2020/12/22 05:11:01;;;;;;;93.82;27.77;;;;;;;;;;5073810;28;20024;-53
2020/12/22 05:13:27;;;;;;;88.82;26.90;;;;;;;;;;5073148;28;20411;-49
2020/12/22 05:15:53;;;;;;;126.03;29.77;;;;;;;;;;5079625;28;20779;-53
2020/12/22 05:18:20;;;;;;;93.07;26.95;;;;;;;;;;5068817;28;20021;-49
2020/12/22 05:20:48;;;;;;;94.93;27.73;;;;;;;;;;5068388;28;20025;-48
2020/12/22 05:23:18;;;;;;;99.38;28.92;;;;;;;;;;5076711;28;20051;-54
2020/12/22 05:25:44;;;;;;;92.80;27.00;;;;;;;;;;5077211;28;20035;-55
2020/12/22 05:28:13;;;;;;;76.78;25.10;;;;;;;;;;5077420;28;20060;-50
2020/12/22 05:30:39;;;;;;;110.90;28.88;;;;;;;;;;5064254;28;20028;-49
2020/12/22 05:33:05;;;;;;;84.90;25.92;;;;;;;;;;5074600;28;20061;-55
2020/12/22 05:35:35;;;;;;;84.85;25.17;;;;;;;;;;5077070;28;20380;-56
2020/12/22 05:38:01;;;;;;;88.90;25.67;;;;;;;;;;5074177;28;20032;-57
2020/12/22 05:40:27;;;;;;;90.22;25.55;;;;;;;;;;5075621;28;20387;-57
2020/12/22 05:42:53;;;;;;;99.78;27.65;;;;;;;;;;5072013;28;20025;-56
2020/12/22 05:45:19;;;;;;;76.40;22.60;;;;;;;;;;5069088;28;20040;-56
2020/12/22 05:47:46;;;;;;;100.55;27.17;;;;;;;;;;5071616;28;20029;-56
2020/12/22 05:50:13;;;;;;;58.88;22.23;;;;;;;;;;5075780;28;20025;-57
2020/12/22 05:52:41;;;;;;;63.85;21.63;;;;;;;;;;5073829;28;20035;-55
2020/12/22 05:55:07;;;;;;;91.68;25.40;;;;;;;;;;5073901;28;20031;-56
2020/12/22 05:57:33;;;;;;;82.85;26.33;;;;;;;;;;5077414;28;20035;-54
2020/12/22 06:00:12;;;;;;;72.57;23.58;;;;;;;;;;5070731;28;20025;-51
2020/12/22 06:02:40;;;;;;;72.53;22.10;;;;;;;;;;5076861;28;20032;-53
2020/12/22 06:05:06;;;;;;;67.72;23.42;;;;;;;;;;5071057;28;20102;-54
2020/12/22 06:07:32;;;;;;;61.10;21.77;;;;;;;;;;5071919;28;20035;-55
2020/12/22 06:09:58;;;;;;;75.93;22.20;;;;;;;;;;5063966;28;20025;-52
2020/12/22 06:12:25;;;;;;;57.67;20.30;;;;;;;;;;5071719;28;20154;-53
2020/12/22 06:14:54;;;;;;;44.92;18.90;;;;;;;;;;5076587;28;20447;-56
2020/12/22 06:17:23;;;;;;;62.08;21.98;;;;;;;;;;5073504;28;20031;-57
2020/12/22 06:19:49;;;;;;;59.10;20.13;;;;;;;;;;5071663;28;20069;-55
2020/12/22 06:22:19;;;;;;;46.33;18.50;;;;;;;;;;5069623;28;20039;-55
2020/12/22 06:24:46;;;;;;;45.17;18.58;;;;;;;;;;5064447;28;20036;-57
2020/12/22 06:27:12;;;;;;;53.95;18.27;;;;;;;;;;5067694;28;20173;-54
2020/12/22 06:29:42;;;;;;;55.80;18.05;;;;;;;;;;5076813;28;20032;-57
2020/12/22 06:32:17;;;;;;;73.28;20.65;;;;;;;;;;5072326;28;20052;-58
2020/12/22 06:34:44;;;;;;;43.13;16.80;;;;;;;;;;5075514;28;20486;-56
2020/12/22 06:37:10;;;;;;;51.35;17.05;;;;;;;;;;5068567;28;20119;-57
2020/12/22 06:39:42;;;;;;;38.75;15.57;;;;;;;;;;5076448;28;20094;-55
2020/12/22 06:42:09;;;;;;;34.75;13.60;;;;;;;;;;5068592;28;20032;-53
2020/12/22 06:44:35;;;;;;;45.67;15.00;;;;;;;;;;5067842;28;20040;-57
2020/12/22 06:47:03;;;;;;;25.63;12.35;;;;;;;;;;5073252;28;20020;-55
2020/12/22 06:49:48;;;;;;;30.92;11.80;;;;;;;;;;5072701;28;20103;-57
2020/12/22 06:52:26;;;;;;;33.85;12.55;;;;;;;;;;5070646;28;20057;-56
2020/12/22 06:54:52;;;;;;;27.70;11.05;;;;;;;;;;5062381;28;20028;-57
2020/12/22 06:57:37;;;;;;;28.10;10.10;;;;;;;;;;5073935;28;20456;-57
2020/12/22 07:00:03;;;;;;;31.52;10.65;;;;;;;;;;5065698;28;20035;-54
2020/12/22 07:02:33;;;;;;;26.02;9.50;;;;;;;;;;5076306;28;20032;-51
2020/12/22 07:05:00;;;;;;;22.02;9.57;;;;;;;;;;5063143;28;20086;-58
2020/12/22 07:07:26;;;;;;;26.55;9.45;;;;;;;;;;5075511;28;20463;-54
2020/12/22 07:10:03;;;;;;;18.88;8.45;;;;;;;;;;5068169;28;20466;-56
2020/12/22 07:12:31;;;;;;;26.63;8.57;;;;;;;;;;5065353;28;20033;-56
2020/12/22 07:14:57;;;;;;;18.17;8.23;;;;;;;;;;5071439;28;20036;-56
2020/12/22 07:17:24;;;;;;;22.67;8.43;;;;;;;;;;5060272;28;20040;-54
2020/12/22 07:19:51;;;;;;;13.93;6.97;;;;;;;;;;5073898;28;20040;-54
2020/12/22 07:22:17;;;;;;;14.45;7.13;;;;;;;;;;5066978;28;20676;-54
2020/12/22 07:24:44;;;;;;;19.67;7.57;;;;;;;;;;5075720;28;20036;-58
2020/12/22 07:27:10;;;;;;;15.13;7.57;;;;;;;;;;5072519;28;20029;-55
2020/12/22 07:29:37;;;;;;;16.15;6.88;;;;;;;;;;5071643;28;20036;-56
2020/12/22 07:32:03;;;;;;;12.20;6.13;;;;;;;;;;5074282;28;20472;-53
2020/12/22 07:34:29;;;;;;;15.50;6.63;;;;;;;;;;5072012;28;20028;-55
2020/12/22 07:37:03;;;;;;;11.60;5.53;;;;;;;;;;5071965;28;20025;-55
2020/12/22 07:39:31;;;;;;;;;;;;;;;;;;5073253;28;20039;-52
2020/12/22 07:41:58;;;;;;;11.95;5.45;;;;;;;;;;5072729;28;20428;-54
2020/12/22 07:44:24;;;;;;;10.80;6.47;;;;;;;;;;5073748;28;20447;-52
2020/12/22 07:46:53;;;;;;;15.18;5.35;;;;;;;;;;5070619;28;20028;-56
2020/12/22 07:49:20;;;;;;;8.93;4.68;;;;;;;;;;5069488;28;20039;-51
2020/12/22 07:51:48;;;;;;;11.82;5.03;;;;;;;;;;5070967;28;20467;-57
2020/12/22 07:54:14;;;;;;;7.75;4.18;;;;;;;;;;5070852;28;20023;-56
2020/12/22 07:56:41;;;;;;;10.77;4.95;;;;;;;;;;5074175;28;20071;-54
2020/12/22 07:59:08;;;;;;;12.07;5.05;;;;;;;;;;5072928;28;20024;-53
2020/12/22 08:01:41;;;;;;;11.13;5.28;;;;;;;;;;5070006;28;20035;-57
2020/12/22 08:04:10;;;;;;;7.40;4.32;;;;;;;;;;5069400;28;20040;-55
2020/12/22 08:06:37;;;;;;;6.70;3.65;;;;;;;;;;5064864;28;20048;-56
2020/12/22 08:09:03;;;;;;;8.55;3.75;;;;;;;;;;5063424;28;20027;-56
2020/12/22 08:11:30;;;;;;;6.57;3.45;;;;;;;;;;5071071;28;20033;-53
2020/12/22 08:13:57;;;;;;;7.93;3.65;;;;;;;;;;5074460;28;20043;-54
2020/12/22 08:16:23;;;;;;;5.93;3.13;;;;;;;;;;5072152;28;20399;-55
2020/12/22 08:18:49;;;;;;;7.22;3.10;;;;;;;;;;5074114;28;20041;-56
2020/12/22 08:21:17;;;;;;;5.72;3.10;;;;;;;;;;5067370;28;20032;-54
2020/12/22 08:23:44;;;;;;;8.15;2.65;;;;;;;;;;5070690;28;20384;-55
2020/12/22 08:26:11;;;;;;;4.40;2.22;;;;;;;;;;5073979;28;20036;-54
2020/12/22 08:28:37;;;;;;;5.55;2.35;;;;;;;;;;5067062;28;20059;-52
2020/12/22 08:31:10;;;;;;;3.63;2.33;;;;;;;;;;5065560;28;20062;-54
2020/12/22 08:33:36;;;;;;;;;;;;;;;;;;5069063;28;20056;-51
2020/12/22 08:36:02;;;;;;;3.95;2.05;;;;;;;;;;5072099;28;19959;-56
2020/12/22 08:38:28;;;;;;;4.55;1.88;;;;;;;;;;5069412;28;20051;-54
2020/12/22 08:40:55;;;;;;;3.13;2.10;;;;;;;;;;5070713;28;20442;-54
2020/12/22 08:43:23;;;;;;;4.45;1.90;;;;;;;;;;5066791;28;20028;-53
2020/12/22 08:45:49;;;;;;;2.75;1.80;;;;;;;;;;5066607;28;20051;-56
2020/12/22 08:48:15;;;;;;;3.10;1.85;;;;;;;;;;5065828;28;20119;-56
2020/12/22 08:50:48;;;;;;;4.50;1.88;;;;;;;;;;5063756;28;20636;-54
2020/12/22 08:53:15;;;;;;;2.38;1.65;;;;;;;;;;5066889;28;20082;-54
2020/12/22 08:55:41;;;;;;;2.55;1.63;;;;;;;;;;5070868;28;20034;-56
2020/12/22 08:58:07;;;;;;;3.90;2.08;;;;;;;;;;5069180;28;20043;-56
2020/12/22 09:00:33;;;;;;;2.53;2.03;;;;;;;;;;5070046;28;20123;-56
2020/12/22 09:03:01;;;;;;;2.35;1.63;;;;;;;;;;5064925;28;20052;-57
2020/12/22 09:05:30;;;;;;;1.77;1.33;;;;;;;;;;5065790;28;20154;-56
2020/12/22 09:07:59;;;;;;;4.00;1.48;;;;;;;;;;5069056;28;20051;-58
2020/12/22 09:10:26;;;;;;;2.53;1.60;;;;;;;;;;5067721;28;20029;-57
2020/12/22 09:12:51;;;;;;;1.75;1.50;;;;;;;;;;5070716;28;20033;-56
2020/12/22 09:15:18;;;;;;;2.03;1.23;;;;;;;;;;5079720;28;20027;-57
2020/12/22 09:17:43;;;;;;;2.30;1.48;;;;;;;;;;5074656;28;20674;-55
2020/12/22 09:20:09;;;;;;;1.42;1.20;;;;;;;;;;5073527;28;20025;-57
2020/12/22 09:22:36;;;;;;;2.22;1.20;;;;;;;;;;5072478;28;20036;-55
2020/12/22 09:25:09;;;;;;;2.45;1.20;;;;;;;;;;5073451;28;20043;-52
2020/12/22 09:27:36;;;;;;;1.20;1.02;;;;;;;;;;5070884;28;20044;-54
2020/12/22 09:30:10;;;;;;;1.25;0.98;;;;;;;;;;5072304;28;20033;-53
2020/12/22 09:32:36;;;;;;;1.35;1.05;;;;;;;;;;5073192;28;21533;-54
2020/12/22 09:35:02;;;;;;;1.45;1.30;;;;;;;;;;5077391;28;20024;-51
2020/12/22 09:37:28;;;;;;;1.20;1.00;;;;;;;;;;5073399;28;20027;-53
2020/12/22 09:39:54;;;;;;;1.10;0.82;;;;;;;;;;5072125;28;20024;-54
2020/12/22 09:42:22;;;;;;;2.70;1.33;;;;;;;;;;5067718;28;20043;-55
2020/12/22 09:44:48;;;;;;;1.35;1.00;;;;;;;;;;5070933;28;20040;-55
2020/12/22 09:47:14;;;;;;;2.80;1.02;;;;;;;;;;5072492;28;20028;-56
2020/12/22 09:49:40;;;;;;;2.00;1.10;;;;;;;;;;5072178;28;20032;-55
2020/12/22 09:52:06;;;;;;;1.98;0.98;;;;;;;;;;5074274;28;20032;-55
2020/12/22 09:54:32;;;;;;;1.45;0.93;;;;;;;;;;5070281;28;20078;-55
2020/12/22 09:56:58;;;;;;;1.33;1.02;;;;;;;;;;5064815;28;20127;-53
2020/12/22 09:59:24;;;;;;;1.05;0.82;;;;;;;;;;5072414;28;20028;-57
2020/12/22 10:01:51;;;;;;;2.22;1.05;;;;;;;;;;5067562;28;20074;-55
2020/12/22 10:04:17;;;;;;;2.15;1.00;;;;;;;;;;5072161;28;20101;-53
2020/12/22 10:06:43;;;;;;;1.23;1.10;;;;;;;;;;5066740;28;20036;-53
2020/12/22 10:09:09;;;;;;;1.13;0.90;;;;;;;;;;5070900;28;20031;-57
2020/12/22 10:11:35;;;;;;;1.75;1.10;;;;;;;;;;5071603;28;20032;-56
2020/12/22 10:14:03;;;;;;;1.27;1.10;;;;;;;;;;5079023;28;20028;-57
2020/12/22 10:16:29;;;;;;;6.43;1.38;;;;;;;;;;5064525;28;20542;-57
2020/12/22 10:18:55;;;;;;;1.63;0.88;;;;;;;;;;5072103;28;20107;-53
2020/12/22 10:21:21;;;;;;;2.33;0.88;;;;;;;;;;5073620;28;20032;-54
2020/12/22 10:23:48;;;;;;;1.25;0.98;;;;;;;;;;5073323;28;20083;-53
2020/12/22 10:26:15;;;;;;;1.45;0.98;;;;;;;;;;5072193;28;20028;-57
2020/12/22 10:28:42;;;;;;;1.90;1.00;;;;;;;;;;5067885;28;20427;-56
2020/12/22 10:31:12;;;;;;;3.92;1.17;;;;;;;;;;5066948;28;20048;-53
2020/12/22 10:33:38;;;;;;;1.10;1.00;;;;;;;;;;5074850;28;20399;-51
2020/12/22 10:36:04;;;;;;;0.90;0.70;;;;;;;;;;5071414;28;20103;-57
2020/12/22 10:38:30;;;;;;;1.83;1.05;;;;;;;;;;5068845;28;20039;-55
2020/12/22 10:40:56;;;;;;;3.42;1.10;;;;;;;;;;5069070;28;20415;-52
2020/12/22 10:43:22;;;;;;;1.65;1.05;;;;;;;;;;5074939;28;20029;-55
2020/12/22 10:45:48;;;;;;;3.88;1.00;;;;;;;;;;5071165;28;20114;-53
2020/12/22 10:48:14;;;;;;;1.90;1.00;;;;;;;;;;5070798;28;20032;-57
2020/12/22 10:50:40;;;;;;;1.40;0.98;;;;;;;;;;5067929;28;20052;-57
2020/12/22 10:53:07;;;;;;;1.80;1.27;;;;;;;;;;5076752;28;20078;-58
2020/12/22 10:55:33;;;;;;;6.57;1.30;;;;;;;;;;5073674;28;20984;-56
2020/12/22 10:57:59;;;;;;;2.83;1.30;;;;;;;;;;5072333;28;20059;-57
2020/12/22 11:00:25;;;;;;;3.15;0.90;;;;;;;;;;5068050;28;20047;-57
2020/12/22 11:02:53;;;;;;;1.33;1.10;;;;;;;;;;5068890;28;20113;-53
2020/12/22 11:06:04;;;;;;;1.17;1.02;;;;;;;;;;5067817;28;20037;-54
2020/12/22 11:08:06;;;;;;;3.55;1.13;;;;;;;;;;5070209;28;20093;-54
2020/12/22 11:10:32;;;;;;;1.40;1.10;;;;;;;;;;5067359;28;20036;-56
2020/12/22 11:12:58;;;;;;;1.13;1.02;;;;;;;;;;5075013;28;20028;-56
2020/12/22 11:15:24;;;;;;;2.13;1.27;;;;;;;;;;5067885;28;20059;-54
2020/12/22 11:17:50;;;;;;;3.20;1.60;;;;;;;;;;5071610;28;20020;-56
2020/12/22 11:20:16;;;;;;;2.33;1.25;;;;;;;;;;5068393;28;20475;-54
2020/12/22 11:22:42;;;;;;;2.05;1.15;;;;;;;;;;5066281;28;20392;-56
2020/12/22 11:25:08;;;;;;;1.92;1.30;;;;;;;;;;5060616;28;20044;-57
2020/12/22 11:27:34;;;;;;;1.35;1.08;;;;;;;;;;5073552;28;20054;-56
2020/12/22 11:30:00;;;;;;;1.63;0.95;;;;;;;;;;5082147;28;20023;-57
2020/12/22 11:32:26;;;;;;;2.53;1.23;;;;;;;;;;5083228;28;20039;-57
2020/12/22 11:34:52;;;;;;;2.95;1.00;;;;;;;;;;5073335;28;20035;-54
2020/12/22 11:37:18;;;;;;;1.30;1.00;;;;;;;;;;5072177;28;20036;-57
2020/12/22 11:39:44;;;;;;;1.13;0.95;;;;;;;;;;5070785;28;20025;-53
2020/12/22 11:42:10;;;;;;;4.28;1.10;;;;;;;;;;5071197;28;20028;-56
2020/12/22 11:44:36;;;;;;;1.20;0.90;;;;;;;;;;5070929;28;20035;-56
2020/12/22 11:47:02;;;;;;;6.85;1.05;;;;;;;;;;5071295;28;20411;-55
2020/12/22 11:49:28;;;;;;;3.45;1.27;;;;;;;;;;5071589;28;20399;-53
2020/12/22 11:52:00;;;;;;;1.38;1.20;;;;;;;;;;5073065;28;20027;-50
2020/12/22 11:54:26;;;;;;;2.25;1.20;;;;;;;;;;5065863;28;20024;-55
2020/12/22 11:56:53;;;;;;;1.75;1.13;;;;;;;;;;5073270;28;20040;-53
2020/12/22 11:59:19;;;;;;;1.50;1.23;;;;;;;;;;5067470;28;20024;-54
2020/12/22 12:01:45;;;;;;;1.50;0.88;;;;;;;;;;5074346;28;20106;-57
2020/12/22 12:04:12;;;;;;;1.33;1.00;;;;;;;;;;5068141;28;20376;-55
2020/12/22 12:06:44;;;;;;;1.10;1.00;;;;;;;;;;5063786;28;20537;-56
2020/12/22 12:09:10;;;;;;;0.95;0.80;;;;;;;;;;5064841;28;20017;-56
2020/12/22 12:11:35;;;;;;;1.23;0.80;;;;;;;;;;5071724;28;20036;-55
2020/12/22 12:14:01;;;;;;;1.85;0.90;;;;;;;;;;5074536;28;20036;-54
2020/12/22 12:16:27;;;;;;;1.55;0.90;;;;;;;;;;5073484;28;20032;-56
2020/12/22 12:18:53;;;;;;;1.40;0.98;;;;;;;;;;5070533;28;20028;-53
2020/12/22 12:21:19;;;;;;;1.17;0.98;;;;;;;;;;5073062;28;20024;-55
2020/12/22 12:23:46;;;;;;;1.75;1.02;;;;;;;;;;5072396;28;20033;-57
2020/12/22 12:26:11;;;;;;;1.13;0.63;;;;;;;;;;5069058;28;20056;-53
2020/12/22 12:28:41;;;;;;;1.48;0.35;;;;;;;;;;5075855;28;20052;-53
2020/12/22 12:31:07;;;;;;;2.67;0.40;;;;;;;;;;5068297;28;20106;-57
2020/12/22 12:33:34;;;;;;;1.65;0.57;;;;;;;;;;5070001;28;20029;-55
2020/12/22 12:36:00;;;;;;;1.00;0.30;;;;;;;;;;5076982;28;20060;-53
2020/12/22 12:38:26;;;;;;;0.40;0.40;;;;;;;;;;5072453;28;20044;-57
2020/12/22 12:40:52;;;;;;;2.58;0.50;;;;;;;;;;5075265;28;20040;-58
2020/12/22 12:43:18;;;;;;;1.73;0.50;;;;;;;;;;5078411;28;20025;-56
2020/12/22 12:45:44;;;;;;;1.55;0.43;;;;;;;;;;5071274;28;20031;-56
2020/12/22 12:48:10;;;;;;;2.30;0.60;;;;;;;;;;5069504;28;20028;-55
2020/12/22 12:50:36;;;;;;;1.88;0.80;;;;;;;;;;5083316;28;20028;-58
2020/12/22 12:53:02;;;;;;;2.08;0.98;;;;;;;;;;5076572;28;20028;-57
2020/12/22 12:55:28;;;;;;;1.05;0.80;;;;;;;;;;5081029;28;20040;-54
2020/12/22 12:57:54;;;;;;;3.80;0.70;;;;;;;;;;5069506;28;20368;-57
2020/12/22 13:00:20;;;;;;;1.25;0.75;;;;;;;;;;5076646;28;20066;-53
2020/12/22 13:02:45;;;;;;;0.93;0.50;;;;;;;;;;5074943;28;20032;-56
2020/12/22 13:05:12;;;;;;;2.85;0.70;;;;;;;;;;5073081;28;20032;-56
2020/12/22 13:07:38;;;;;;;1.02;0.52;;;;;;;;;;5070200;28;20086;-54
2020/12/22 13:10:05;;;;;;;1.45;0.70;;;;;;;;;;5063872;28;20024;-55
2020/12/22 13:12:31;;;;;;;0.70;0.43;;;;;;;;;;5084360;28;20802;-55
2020/12/22 13:14:57;;;;;;;0.70;0.60;;;;;;;;;;5075703;28;20024;-51
2020/12/22 13:17:23;;;;;;;1.45;0.80;;;;;;;;;;5072400;28;20398;-54
2020/12/22 13:19:49;;;;;;;2.15;0.82;;;;;;;;;;5072624;28;20110;-57
2020/12/22 13:22:15;;;;;;;0.95;0.68;;;;;;;;;;5073815;28;20024;-54
2020/12/22 13:24:41;;;;;;;2.17;1.02;;;;;;;;;;5071896;28;20033;-51
2020/12/22 13:27:08;;;;;;;1.90;0.77;;;;;;;;;;5075504;28;20052;-56
2020/12/22 13:29:34;;;;;;;3.85;0.82;;;;;;;;;;5077179;28;20400;-55
2020/12/22 13:32:00;;;;;;;1.88;0.98;;;;;;;;;;5072162;28;20021;-57
2020/12/22 13:34:27;;;;;;;2.25;0.80;;;;;;;;;;5076792;28;20028;-55
2020/12/22 13:36:53;;;;;;;2.45;0.90;;;;;;;;;;5088114;28;20375;-56
2020/12/22 13:39:19;;;;;;;2.72;0.70;;;;;;;;;;5056588;28;20481;-51
2020/12/22 13:41:46;;;;;;;1.45;0.70;;;;;;;;;;5064773;28;20047;-51
2020/12/22 13:44:11;;;;;;;1.60;0.80;;;;;;;;;;5072911;28;20568;-56
2020/12/22 13:46:37;;;;;;;2.28;1.10;;;;;;;;;;5070747;28;20020;-52
2020/12/22 13:49:04;;;;;;;1.25;0.50;;;;;;;;;;5070519;28;20021;-56
2020/12/22 13:51:30;;;;;;;1.15;1.00;;;;;;;;;;5069717;28;20023;-54
2020/12/22 13:53:56;;;;;;;1.13;0.80;;;;;;;;;;5067123;28;20399;-53
2020/12/22 13:56:22;;;;;;;2.90;0.80;;;;;;;;;;5067580;28;20028;-54
2020/12/22 13:58:48;;;;;;;0.82;0.70;;;;;;;;;;5064830;28;20119;-58
2020/12/22 14:01:14;;;;;;;2.53;0.95;;;;;;;;;;5066958;28;20020;-54
2020/12/22 14:03:40;;;;;;;2.30;0.85;;;;;;;;;;5067557;28;20043;-54
2020/12/22 14:06:05;;;;;;;3.15;0.80;;;;;;;;;;5065808;28;20131;-52
2020/12/22 14:08:32;;;;;;;3.17;1.10;;;;;;;;;;5074087;28;20059;-54
2020/12/22 14:10:58;;;;;;;6.47;1.10;;;;;;;;;;5078142;28;20016;-50
2020/12/22 14:13:24;;;;;;;6.05;1.02;;;;;;;;;;5069272;28;20032;-57
2020/12/22 14:15:50;;;;;;;1.50;0.80;;;;;;;;;;5070299;28;20025;-57
2020/12/22 14:18:16;;;;;;;1.83;0.93;;;;;;;;;;5072342;28;20044;-53
2020/12/22 14:20:42;;;;;;;5.25;1.00;;;;;;;;;;5075721;28;20479;-50
2020/12/22 14:23:08;;;;;;;1.30;0.88;;;;;;;;;;5069965;28;20282;-53
2020/12/22 14:25:35;;;;;;;2.08;0.90;;;;;;;;;;5071918;28;20028;-56
2020/12/22 14:28:01;;;;;;;2.20;1.08;;;;;;;;;;5074897;28;20020;-53